AirNav   Air Wisconsin Up To $57,000 Bonus
 
 1378 users online  

5AK1 Beluga Heliport
Tyonek, Alaska, USA

GOING TO TYONEK?


FAA INFORMATION EFFECTIVE 05 DECEMBER 2019

Location

FAA Identifier: 5AK1
Lat/Long: 61-10-50.7700N 151-02-28.1300W
61-10.846167N 151-02.468833W
61.1807694,-151.0411472
(estimated)
Elevation: 75 ft. / 23 m (estimated)
From city: 6 miles SW of TYONEK, AK
Time zone: UTC -9 (UTC -8 during Daylight Saving Time)
Zip code: 99688

Heliport Operations

Heliport use: Private use. Permission required prior to landing
Activation date: 04/2004
Control tower: no
ARTCC: ANCHORAGE CENTER
FSS: KENAI FLIGHT SERVICE STATION [907-283-7211]
Attendance: UNATNDD
Wind indicator: yes
Segmented circle: no

Heliport Communications

CTAF: 122.7

Nearby radio navigation aids

VOR radial/distance  VOR name  Freq  Var
TEDr253/31.3ANCHORAGE VOR/DME113.1518E
ENAr349/34.3KENAI VOR/DME117.6019E
BGQr214/38.7BIG LAKE VORTAC112.5019E

 
NDB name  Hdg/Dist  Freq  Var  ID
CAMPBELL LAKE255/28.733816ECMQ -.-. -- --.-
WILDWOOD353/35.337915EIWW .. .-- .--

Heliport Services

Runway Information

Helipad H1

Dimensions: 40 x 40 ft. / 12 x 12 m
Surface: gravel
Runway edge lights: PERI
Traffic pattern: leftleft

Heliport Ownership and Management from official FAA records

Ownership: Privately-owned
Owner: CHUGACH ELECTRIC ASSN
ATTN: DIR. OF SUBSTATIONS & LINE OP, 5601 ELECTRON DR.
ANCHORAGE, AK 99519-6300
Phone 800-478-7494
Manager: CHUGACH ELECTRIC ASSN
ATTN: DIR. OF SUBSTATIONS & LINE OP, 5601 ELECTRON DR.
ANCHORAGE, AK 99519-6300
Phone 800-478-7494

Heliport Operational Statistics

Aircraft based on the field: 1
Helicopters: 1
    

Instrument Procedures

There are no published instrument procedures at 5AK1.

Some nearby airports with instrument procedures:

PANC - Ted Stevens Anchorage International Airport (30 nm E)
PAMR - Merrill Field Airport (35 nm E)
PAED - Elmendorf Air Force Base (36 nm E)
PAEN - Kenai Municipal Airport (37 nm S)
PAFR - Bryant Army Airfield Heliport (40 nm E)
 
Loc | Ops | Rwys | IFR | FBO | Links
Com | Nav | Svcs | Stats | Notes

Crowley
 
Area around 5AK1 (Beluga Heliport)
 
Road maps at: MapQuest Bing Google
 
Aerial photo
No photo
 
Sectional chart

 
Airport distance calculator
Flying to Beluga Heliport? Find the distance to fly.

From to 5AK1

Sunrise and sunset
Times for 09-Dec-2019
 Local
(UTC-9)
 Zulu
(UTC)
Morning civil twilight09:0618:06
Sunrise10:0619:06
Sunset15:4700:47
Evening civil twilight16:4701:47

Current date and time
Zulu (UTC)  09-Dec-2019 17:47:38
Local (UTC-9)  09-Dec-2019 08:47:38
 
METAR
PANC 
30nm E 
091653Z 25008KT 10SM -RA FEW070 06/01 A2931 RMK AO2 RAB17 SLP926 P0000 T00610006 $
PALH 
31nm E 
091653Z 00000KT 10SM CLR 06/00 A2931 RMK AO2 RAE37 SLP926 P0000 T00610000
PAMR 
34nm E 
091653Z 03007KT 360V070 10SM OVC080 08/M01 A2931 RMK AO2 RAB1559E09 SLP925 P0000 T00831011 $
PAED 
36nm E 
091456Z 35013KT 10SM -DZ FEW023 SCT047 06/02 A2936 RMK AO2A SLP939 P0000 60000 T00550020 57027 $
PAEN 
37nm S 
091653Z 10007KT 10SM BKN050 OVC070 07/01 A2924 RMK AO2 SLP903 T00670006
PAFR 
40nm E 
091458Z AUTO 20004KT 9SM -PL FEW015 OVC060 02/01 A2934 RMK AO2 RAB24E32 SLP944 T00210013 57027 FZRANO $
PASX 
42nm S 
091656Z AUTO 08029G42KT 5SM -RA BKN045 OVC050 06/03 A2922 RMK AO2 PK WND 08042/1656 RAB02 SLP906 P0000 T00610033
PABV 
46nm E 
091656Z AUTO 04012G26KT 030V100 10SM BKN070 OVC080 07/02 A2933 RMK AO2 PK WND 04027/1637 SLP939 T00720017
TAF
PANC 
30nm E 
091601Z 0916/1018 36011KT P6SM VCSH BKN060 WS020/12055KT FM091800 36011KT P6SM VCSH BKN060 WS020/12065KT FM100300 15022G33KT P6SM -RA SCT030 OVC050 FM100900 17010G20KT P6SM -RA OVC040
PAED 
36nm E 
091100Z 0911/1017 24009KT 9999 BKN070 WS010/09030KT QNH2935INS TEMPO 0912/0915 01015G20KT 510008 BECMG 0914/0915 02020G25KT 9000 -RASN SCT030 BKN040 WS010/11050KT 620406 520008 QNH2922INS BECMG 0923/0924 04012G18KT 8000 -RA FEW020 SCT030 WS015/09040KT 510107 QNH2922INS BECMG 1005/1006 17009KT 6000 -RA BKN025 BKN050 620259 510306 QNH2932INS BECMG 1011/1012 03009KT 9999 NSW SCT160 510306 QNH2945INS TX05/1000Z TNM01/0911Z
NOTAMs
Click for the latest NOTAMs
NOTAMs are issued by the DoD/FAA and will open in a separate window not controlled by AirNav.

 

 
 

Would you like to see your business listed on this page?

 If your business provides an interesting product or service to pilots, flight crews, aircraft, or users of the Beluga Heliport, you should consider listing it here.  To start the listing process, click on the button below
 
Add a business
 

Other Pages about Beluga Heliport

Update a link
 
Copyright © AirNav, LLC. All rights reserved. Privacy Policy  Contact